createdAt,value
2019-06-01T00:19:27.631Z,9.06
2019-06-01T00:34:50.104Z,9.27
2019-06-01T00:50:01.817Z,9.67
2019-06-01T01:05:22.739Z,9.93
2019-06-01T01:20:31.852Z,10.07
2019-06-01T01:35:40.994Z,10.30
2019-06-01T01:50:50.241Z,10.59
2019-06-01T02:05:59.251Z,10.59
2019-06-01T02:21:08.732Z,10.62
2019-06-01T02:36:19.075Z,10.91
2019-06-01T02:51:28.929Z,11.30
2019-06-01T03:06:41.647Z,11.51
2019-06-01T03:21:51.715Z,11.70
2019-06-01T03:37:01.113Z,12.05
2019-06-01T03:52:10.612Z,12.05
2019-06-01T04:07:19.899Z,12.50
2019-06-01T04:22:29.486Z,13.23
2019-06-01T04:37:41.006Z,15.73
2019-06-01T04:52:50.189Z,17.83
2019-06-01T05:07:58.658Z,20.13
2019-06-01T05:23:08.622Z,22.09
2019-06-01T05:38:18.501Z,23.42
2019-06-01T05:53:44.238Z,24.36
2019-06-01T06:08:56.167Z,24.28
2019-06-01T06:24:06.137Z,23.86
2019-06-01T06:39:15.757Z,23.48
2019-06-01T06:54:27.006Z,23.23
2019-06-01T07:09:37.338Z,23.29
2019-06-01T07:24:46.270Z,23.58
2019-06-01T07:39:57.062Z,22.65
2019-06-01T07:55:12.185Z,22.59
2019-06-01T08:10:23.107Z,22.72
2019-06-01T08:25:32.863Z,22.63
2019-06-01T08:40:41.616Z,22.54
2019-06-01T08:55:49.986Z,22.40
2019-06-01T09:11:00.753Z,22.65
2019-06-01T09:26:13.795Z,23.21
2019-06-01T09:41:24.341Z,22.82
2019-06-01T09:56:37.224Z,23.20
2019-06-01T10:11:47.005Z,23.65
2019-06-01T10:26:56.452Z,23.82
2019-06-01T10:42:06.292Z,23.80
2019-06-01T10:57:34.490Z,23.63
2019-06-01T11:51:26.956Z,23.83
2019-06-01T12:06:37.828Z,24.12
2019-06-01T12:21:51.379Z,24.87
2019-06-01T12:37:02.352Z,25.02
2019-06-01T12:52:29.244Z,25.08
2019-06-01T13:07:50.897Z,25.99
2019-06-01T13:22:47.713Z,25.08
2019-06-01T13:38:10.471Z,24.81
2019-06-01T13:53:10.163Z,25.20
2019-06-01T14:08:29.054Z,21.94
2019-06-01T14:23:30.343Z,20.69
2019-06-01T14:38:47.102Z,20.89
2019-06-01T14:54:08.482Z,20.85
2019-06-01T15:09:19.312Z,21.12
2019-06-01T15:41:58.909Z,21.63
2019-06-01T15:57:11.481Z,21.82
2019-06-01T16:12:41.085Z,21.55
2019-06-01T16:27:54.622Z,22.58
2019-06-01T16:43:15.485Z,22.70
2019-06-01T18:19:56.628Z,21.01
2019-06-01T18:35:07.597Z,21.15
2019-06-01T18:50:17.768Z,20.60
2019-06-01T19:05:29.180Z,20.04
2019-06-01T19:20:39.168Z,19.98
2019-06-01T19:35:49.764Z,19.32
2019-06-01T19:51:00.520Z,18.67
2019-06-01T20:06:09.111Z,17.92
2019-06-01T20:21:20.665Z,17.49
2019-06-01T20:36:30.384Z,16.96
2019-06-01T20:51:43.520Z,16.72
2019-06-01T21:07:17.836Z,16.43
2019-06-01T21:22:25.854Z,16.01
2019-06-01T21:37:34.952Z,15.44
2019-06-01T21:52:54.303Z,15.22
2019-06-01T22:08:07.072Z,14.99
2019-06-01T22:23:17.900Z,14.99
2019-06-01T22:38:30.866Z,15.18
2019-06-01T22:53:40.587Z,15.11
2019-06-01T23:25:07.210Z,15.09
2019-06-01T23:40:16.975Z,15.22
